Catrine, United Kingdom
Current Conditions -  °F | °C
As of 11:50 PM on Sunday 25 Jan 2015 (Local Time) from EGPK Reporting Station
Light Rain Light Rain  
Wind Chill: 41°   Ceiling: Unl
Heat Index: 46°   Visibility: 6mi
Dew Point: 45°   Wind: 10mph
Humidity: 93%   Direction: 240°WSW
Pressure: 30.03"   Gusts: NA
Location:  55.5°N, 4.33°W
Report Text: EGPK 252350Z 24009KT 9000 -RA FEW015 SCT028 08/07 Q1017
Loading
Personal Weather Stations






























Interactive Weather Map New forecast layout! Learn more

10-Day Weather Forecast

Advertisements
Track Severe Weather on mobile